Time;durP1;ratioP1;P1;durP2;ratioP2;P2;SDS_P1;SDS_P2;PMS_P1;PMS_P2;Temp;Humidity;BMP_temperature;BMP_pressure;BME280_temperature;BME280_humidity;BME280_pressure;Samples;Min_cycle;Max_cycle;Signal;HPM_P1;HPM_P2
2023/03/26 00:00:49;;;;;;;7.93;7.70;;;;;;;9.27;82.50;92356.06;5068173;28;20224;-69
2023/03/26 00:03:16;;;;;;;7.33;7.13;;;;;;;9.27;83.13;92344.88;5068739;28;20260;-67
2023/03/26 00:05:43;;;;;;;8.43;8.13;;;;;;;9.14;83.46;92341.09;5067909;28;20221;-69
2023/03/26 00:08:08;;;;;;;7.57;7.37;;;;;;;9.11;83.67;92338.25;5068972;28;20211;-69
2023/03/26 00:10:39;;;;;;;7.57;7.37;;;;;;;9.13;83.93;92355.19;5068560;28;20229;-69
2023/03/26 00:13:05;;;;;;;7.93;7.73;;;;;;;9.09;84.51;92348.94;5070494;28;20197;-69
2023/03/26 00:15:32;;;;;;;9.57;9.17;;;;;;;9.07;84.69;92335.44;5067956;28;20229;-68
2023/03/26 00:17:59;;;;;;;8.80;8.50;;;;;;;9.01;85.45;92330.56;5072551;28;20181;-69
2023/03/26 00:20:26;;;;;;;7.70;7.40;;;;;;;8.95;85.83;92326.47;5072338;28;20217;-69
2023/03/26 00:22:52;;;;;;;8.70;8.40;;;;;;;8.92;86.00;92321.81;5072101;28;20212;-69
2023/03/26 00:25:19;;;;;;;7.37;7.13;;;;;;;8.81;87.09;92321.09;5072155;28;20344;-70
2023/03/26 00:27:45;;;;;;;8.00;7.70;;;;;;;8.89;87.27;92320.50;5072092;28;20196;-69
2023/03/26 00:30:11;;;;;;;8.00;7.70;;;;;;;8.89;86.87;92317.91;5071566;28;20739;-69
2023/03/26 00:32:37;;;;;;;7.73;7.53;;;;;;;8.73;87.17;92292.31;5072133;28;20192;-70
2023/03/26 00:35:02;;;;;;;7.50;7.30;;;;;;;8.79;88.30;92309.41;5071149;28;20221;-69
2023/03/26 00:37:29;;;;;;;7.97;7.70;;;;;;;8.79;88.02;92299.78;5071684;28;20181;-70
2023/03/26 00:40:03;;;;;;;7.57;7.37;;;;;;;8.73;88.54;92290.44;5104547;28;20240;-68
2023/03/26 00:42:29;;;;;;;6.93;6.73;;;;;;;8.67;88.51;92293.41;5072671;28;20833;-69
2023/03/26 00:44:56;;;;;;;8.70;8.33;;;;;;;8.59;89.16;92299.94;5070153;28;20226;-69
2023/03/26 00:47:27;;;;;;;7.63;7.37;;;;;;;8.62;88.82;92302.03;5071185;28;20185;-69
2023/03/26 00:49:52;;;;;;;8.50;8.20;;;;;;;8.56;89.56;92300.50;5070753;28;20225;-69
2023/03/26 00:52:22;;;;;;;8.37;8.07;;;;;;;8.68;88.86;92302.75;5070609;28;20197;-69
2023/03/26 00:54:50;;;;;;;8.57;8.27;;;;;;;8.65;88.70;92309.28;5070910;28;20231;-69
2023/03/26 00:57:19;;;;;;;8.13;7.83;;;;;;;8.71;87.47;92315.22;5071160;28;20263;-69
2023/03/26 00:59:44;;;;;;;9.00;8.70;;;;;;;8.70;87.11;92305.88;5071808;28;20217;-69
2023/03/26 01:02:17;;;;;;;8.63;8.30;;;;;;;8.91;83.71;92315.03;5072257;28;20228;-69
2023/03/26 01:04:56;;;;;;;8.57;8.27;;;;;;;8.85;85.11;92301.28;5103769;28;20245;-70
2023/03/26 01:07:27;;;;;;;8.23;7.93;;;;;;;8.82;85.92;92306.25;5070639;28;20193;-69
2023/03/26 01:09:58;;;;;;;8.87;8.57;;;;;;;8.74;85.88;92305.03;5071314;28;20225;-69
2023/03/26 01:12:27;;;;;;;8.53;8.23;;;;;;;8.61;86.55;92312.69;5071706;28;20186;-69
2023/03/26 01:14:56;;;;;;;9.10;8.80;;;;;;;8.65;87.17;92298.88;5071579;28;20225;-69
2023/03/26 01:17:22;;;;;;;8.67;8.37;;;;;;;8.65;86.97;92313.72;5071700;28;20200;-68
2023/03/26 01:20:18;;;;;;;7.60;7.30;;;;;;;8.63;87.26;92316.59;5071195;28;20351;-69
2023/03/26 01:22:48;;;;;;;8.77;8.47;;;;;;;8.48;87.64;92305.53;5070071;28;20217;-69
2023/03/26 01:25:13;;;;;;;7.93;7.57;;;;;;;8.47;88.76;92320.34;5071332;28;20218;-69
2023/03/26 01:27:43;;;;;;;7.73;7.43;;;;;;;8.44;89.03;92322.72;5071704;28;20200;-69
2023/03/26 01:30:09;;;;;;;8.60;8.30;;;;;;;8.44;88.67;92320.91;5069129;28;20276;-69
2023/03/26 01:32:38;;;;;;;8.57;8.17;;;;;;;8.38;89.82;92321.97;5071237;28;20212;-69
2023/03/26 01:35:05;;;;;;;8.17;7.87;;;;;;;8.42;89.39;92330.03;5070850;28;20267;-69
2023/03/26 01:38:11;;;;;;;8.63;8.13;;;;;;;8.37;90.52;92330.06;5071163;28;20204;-69
2023/03/26 01:40:45;;;;;;;7.80;7.50;;;;;;;8.41;90.28;92333.66;5068668;28;20221;-69
2023/03/26 01:43:25;;;;;;;8.20;7.90;;;;;;;8.44;90.57;92325.31;5071351;28;20224;-69
2023/03/26 01:45:52;;;;;;;9.07;8.67;;;;;;;8.44;91.02;92325.31;5069844;28;20312;-69
2023/03/26 01:48:18;;;;;;;8.30;8.00;;;;;;;8.48;90.39;92331.53;5071574;28;20184;-69
2023/03/26 01:50:43;;;;;;;8.50;8.20;;;;;;;8.42;90.40;92319.63;5070975;28;20217;-69
2023/03/26 01:53:11;;;;;;;8.17;7.87;;;;;;;8.51;90.55;92336.97;5071126;28;20264;-70
2023/03/26 01:55:48;;;;;;;8.63;8.33;;;;;;;8.48;90.76;92334.13;5069800;28;20241;-69
2023/03/26 01:58:33;;;;;;;8.70;8.40;;;;;;;8.52;90.64;92332.53;5071252;28;20276;-69
2023/03/26 02:01:18;;;;;;;8.83;8.40;;;;;;;8.53;90.38;92324.47;5070080;28;20225;-69
2023/03/26 02:03:54;;;;;;;8.80;8.50;;;;;;;8.61;90.39;92330.91;5070734;28;20253;-69
2023/03/26 02:06:33;;;;;;;7.70;7.50;;;;;;;8.51;91.34;92331.78;5070587;28;20583;-70
2023/03/26 02:09:04;;;;;;;8.17;7.87;;;;;;;8.41;92.19;92323.25;5070018;28;20241;-69
2023/03/26 02:11:30;;;;;;;7.67;7.40;;;;;;;8.53;91.40;92328.91;5070107;28;20255;-69
2023/03/26 02:13:56;;;;;;;7.70;7.43;;;;;;;8.47;91.21;92333.34;5070568;28;20233;-69
2023/03/26 02:16:22;;;;;;;8.30;8.00;;;;;;;8.37;91.20;92324.84;5070402;28;20237;-69
2023/03/26 02:18:50;;;;;;;8.50;8.20;;;;;;;8.37;90.53;92330.06;5070778;28;20205;-68
2023/03/26 02:21:21;;;;;;;8.87;8.43;;;;;;;8.23;91.25;92329.91;5070013;28;20224;-69
2023/03/26 02:23:49;;;;;;;9.60;9.20;;;;;;;8.33;88.62;92323.84;5069689;28;20182;-68
2023/03/26 02:26:17;;;;;;;9.77;9.27;;;;;;;8.37;87.90;92311.84;5069504;28;20221;-69
2023/03/26 02:28:42;;;;;;;9.50;9.10;;;;;;;8.36;87.84;92312.91;5070723;28;20189;-69
2023/03/26 02:31:12;;;;;;;8.63;8.23;;;;;;;8.34;87.81;92309.78;5069874;28;20307;-69
2023/03/26 02:33:38;;;;;;;8.13;7.83;;;;;;;8.29;88.59;92308.00;5068932;28;20181;-69
2023/03/26 02:36:04;;;;;;;8.43;7.93;;;;;;;8.39;88.69;92322.78;5068597;28;20236;-69
2023/03/26 02:38:34;;;;;;;9.60;9.20;;;;;;;8.49;87.91;92327.88;5069668;28;20182;-68
2023/03/26 02:41:01;;;;;;;9.17;8.60;;;;;;;8.48;87.73;92331.53;5069648;28;20229;-68
2023/03/26 02:43:26;;;;;;;9.30;8.90;;;;;;;8.63;86.82;92323.59;5070233;28;20189;-69
2023/03/26 02:45:52;;;;;;;8.60;8.20;;;;;;;8.52;86.05;92312.50;5067737;28;20246;-70
2023/03/26 02:48:19;;;;;;;8.93;8.63;;;;;;;8.77;85.28;92334.94;5069955;28;20249;-69
2023/03/26 02:50:48;;;;;;;8.97;8.67;;;;;;;8.69;84.73;92340.72;5068924;28;20240;-69
2023/03/26 02:53:17;;;;;;;8.73;8.43;;;;;;;8.64;85.77;92349.34;5068320;28;20186;-69
2023/03/26 02:55:43;;;;;;;8.37;8.07;;;;;;;8.56;85.72;92349.94;5068576;28;20209;-68
2023/03/26 02:58:08;;;;;;;8.80;8.50;;;;;;;8.49;85.95;92351.28;5069471;28;20227;-70
2023/03/26 03:00:34;;;;;;;10.20;9.80;;;;;;;8.58;85.16;92367.88;5068229;28;20256;-69
2023/03/26 03:03:03;;;;;;;9.40;9.00;;;;;;;8.48;84.75;92365.34;5069381;28;20225;-69
2023/03/26 03:05:30;;;;;;;9.23;8.93;;;;;;;8.55;84.41;92389.22;5069003;28;20252;-69
2023/03/26 03:07:57;;;;;;;10.47;9.87;;;;;;;8.54;84.97;92388.47;5100068;28;20177;-68
2023/03/26 03:10:23;;;;;;;8.20;7.90;;;;;;;8.57;85.77;92381.94;5067541;28;20253;-70
2023/03/26 03:12:49;;;;;;;8.80;8.50;;;;;;;8.39;86.24;92367.75;5068313;28;20692;-69
2023/03/26 03:15:14;;;;;;;8.67;8.37;;;;;;;8.36;87.44;92370.88;5069106;28;20220;-69
2023/03/26 03:17:40;;;;;;;8.37;8.07;;;;;;;8.35;87.71;92366.75;5069290;28;20273;-68
2023/03/26 03:20:08;;;;;;;8.47;8.17;;;;;;;8.36;88.07;92376.09;5069072;28;20276;-69
2023/03/26 03:22:35;;;;;;;9.53;9.13;;;;;;;8.15;89.31;92359.81;5069277;28;20205;-68
2023/03/26 03:25:00;;;;;;;9.07;8.57;;;;;;;8.13;89.69;92372.31;5068672;28;20232;-68
2023/03/26 03:27:26;;;;;;;9.27;8.87;;;;;;;7.96;90.16;92348.50;5068671;28;20204;-69
2023/03/26 03:29:52;;;;;;;10.50;10.00;;;;;;;7.97;90.63;92364.84;5068134;28;20217;-69
2023/03/26 03:32:18;;;;;;;9.10;8.60;;;;;;;7.95;90.57;92366.97;5068558;28;20181;-68
2023/03/26 03:34:44;;;;;;;11.13;10.53;;;;;;;7.93;90.17;92362.03;5068288;28;20245;-68
2023/03/26 03:37:10;;;;;;;10.47;9.87;;;;;;;7.96;90.77;92366.69;5069319;28;20216;-68
2023/03/26 03:39:35;;;;;;;9.60;9.10;;;;;;;7.87;90.23;92357.91;5067443;28;20221;-68
2023/03/26 03:42:01;;;;;;;10.37;9.87;;;;;;;7.83;90.92;92363.88;5068972;28;20263;-67
2023/03/26 03:44:26;;;;;;;10.27;9.77;;;;;;;7.79;91.60;92370.66;5068329;28;20254;-70
2023/03/26 03:46:54;;;;;;;9.57;9.07;;;;;;;7.81;91.30;92379.75;5077970;28;20247;-69
2023/03/26 03:49:20;;;;;;;10.33;9.77;;;;;;;7.64;91.74;92358.50;5068330;28;20205;-69
2023/03/26 03:51:45;;;;;;;10.93;10.43;;;;;;;7.68;91.43;92369.94;5067806;28;20198;-69
2023/03/26 03:54:11;;;;;;;9.60;9.10;;;;;;;7.56;92.16;92359.09;5069190;28;20617;-69
2023/03/26 03:56:37;;;;;;;10.80;10.07;;;;;;;7.65;91.61;92369.69;5068812;28;20213;-68
2023/03/26 03:59:03;;;;;;;10.73;10.13;;;;;;;7.62;91.33;92373.59;5066643;28;20268;-69
2023/03/26 04:01:29;;;;;;;10.87;10.03;;;;;;;7.59;91.66;92379.34;5067740;28;20221;-69
2023/03/26 04:03:55;;;;;;;9.37;8.87;;;;;;;7.60;91.36;92393.06;5068391;28;20178;-69
2023/03/26 04:06:24;;;;;;;9.63;9.10;;;;;;;7.63;91.15;92385.53;5068613;28;20243;-69
2023/03/26 04:08:50;;;;;;;10.60;10.00;;;;;;;7.58;91.17;92385.56;5068579;28;20189;-69
2023/03/26 04:11:15;;;;;;;9.87;9.37;;;;;;;7.59;90.49;92378.53;5068356;28;20232;-69
2023/03/26 04:13:41;;;;;;;10.70;10.07;;;;;;;7.52;90.16;92394.41;5068071;28;20253;-69
2023/03/26 04:16:07;;;;;;;10.20;9.70;;;;;;;7.60;90.17;92398.28;5068402;28;20260;-70
2023/03/26 04:18:35;;;;;;;10.83;10.23;;;;;;;7.47;91.65;92406.66;5068615;28;20200;-69
2023/03/26 04:21:01;;;;;;;9.77;9.27;;;;;;;7.48;91.85;92408.97;5067859;28;20285;-70
2023/03/26 04:23:28;;;;;;;10.13;9.63;;;;;;;7.51;92.47;92421.44;5068506;28;20212;-69
2023/03/26 04:25:54;;;;;;;11.33;10.67;;;;;;;7.38;92.50;92403.78;5068814;28;20240;-69
2023/03/26 04:28:27;;;;;;;9.70;9.20;;;;;;;7.53;92.51;92428.97;5067818;28;20188;-70
2023/03/26 04:30:54;;;;;;;9.37;8.87;;;;;;;7.49;92.63;92428.69;5068609;28;20237;-69
2023/03/26 04:33:20;;;;;;;10.83;10.23;;;;;;;7.56;92.10;92429.22;5067904;28;20193;-69
2023/03/26 04:35:49;;;;;;;9.93;9.23;;;;;;;7.56;92.46;92444.00;5068367;28;20252;-68
2023/03/26 04:38:16;;;;;;;11.20;10.60;;;;;;;7.48;92.28;92453.13;5067119;28;20202;-70
2023/03/26 04:40:46;;;;;;;9.60;9.10;;;;;;;7.52;92.63;92448.16;5067230;28;20467;-69
2023/03/26 04:43:16;;;;;;;10.20;9.70;;;;;;;7.44;92.93;92446.88;5069323;28;20215;-70
2023/03/26 04:45:42;;;;;;;10.70;10.10;;;;;;;7.47;93.34;92461.94;5067194;28;20225;-69
2023/03/26 04:48:13;;;;;;;10.40;9.80;;;;;;;7.54;92.65;92459.88;5068689;28;20218;-69
2023/03/26 04:50:43;;;;;;;10.27;9.77;;;;;;;7.50;92.98;92453.63;5068749;28;20221;-69
2023/03/26 04:53:13;;;;;;;11.27;10.67;;;;;;;7.51;92.96;92470.00;5067105;28;20189;-69
2023/03/26 04:56:08;;;;;;;11.27;10.57;;;;;;;7.48;90.25;92458.31;5067755;28;20251;-68
2023/03/26 04:58:34;;;;;;;10.63;10.00;;;;;;;7.55;88.10;92458.81;5058708;28;20206;-69
2023/03/26 05:01:00;;;;;;;12.40;11.60;;;;;;;7.66;87.05;92457.75;5071348;28;20256;-69
2023/03/26 05:03:31;;;;;;;10.97;10.10;;;;;;;7.64;86.32;92462.41;5072151;28;20291;-69
2023/03/26 05:06:00;;;;;;;12.30;11.53;;;;;;;7.69;85.82;92470.22;5071228;28;20225;-69
2023/03/26 05:08:27;;;;;;;13.07;11.87;;;;;;;7.79;85.30;92472.78;5070210;28;20271;-69
2023/03/26 05:10:55;;;;;;;12.40;11.20;;;;;;;7.84;83.42;92477.94;5071134;28;20280;-69
2023/03/26 05:13:22;;;;;;;12.07;11.27;;;;;;;7.96;83.42;92486.25;5071577;28;20197;-69
2023/03/26 05:15:47;;;;;;;11.97;11.17;;;;;;;7.91;82.85;92468.06;5071219;28;20225;-69
2023/03/26 05:18:13;;;;;;;12.33;11.43;;;;;;;8.04;81.85;92483.09;5071682;28;20200;-69
2023/03/26 05:20:39;;;;;;;12.93;12.03;;;;;;;8.06;81.24;92475.81;5071740;28;20297;-69
2023/03/26 05:23:04;;;;;;;12.60;11.73;;;;;;;8.14;80.92;92488.25;5070810;28;20284;-69
2023/03/26 05:25:30;;;;;;;11.10;10.30;;;;;;;8.20;80.32;92494.22;5071106;28;20263;-70
2023/03/26 05:27:56;;;;;;;11.17;10.47;;;;;;;8.35;80.25;92498.59;5071491;28;20193;-70
2023/03/26 05:30:21;;;;;;;11.90;11.10;;;;;;;8.44;80.35;92497.78;5069522;28;20221;-69
2023/03/26 05:32:48;;;;;;;11.10;10.40;;;;;;;8.40;79.21;92496.75;5070040;28;20185;-68
2023/03/26 05:35:15;;;;;;;11.03;10.27;;;;;;;8.42;79.42;92506.91;5071030;28;20252;-69
2023/03/26 05:37:44;;;;;;;11.13;10.37;;;;;;;8.33;79.65;92501.47;5070697;28;20193;-69
2023/03/26 05:40:12;;;;;;;11.77;10.90;;;;;;;8.38;80.01;92501.44;5071119;28;20233;-70
2023/03/26 05:42:38;;;;;;;11.53;10.70;;;;;;;8.40;79.44;92495.97;5070417;28;20228;-69
2023/03/26 05:45:06;;;;;;;11.97;11.20;;;;;;;8.52;79.38;92506.84;5070462;28;20285;-69
2023/03/26 05:47:31;;;;;;;13.50;12.70;;;;;;;8.51;79.11;92498.28;5070647;28;20243;-69
2023/03/26 05:49:57;;;;;;;11.57;10.80;;;;;;;8.67;78.27;92510.13;5070830;28;20225;-70
2023/03/26 05:52:23;;;;;;;11.50;10.80;;;;;;;8.68;77.37;92503.13;5070735;28;20253;-70
2023/03/26 05:54:49;;;;;;;13.50;12.37;;;;;;;8.78;76.53;92510.88;5070485;28;20237;-69
2023/03/26 05:57:14;;;;;;;12.40;11.43;;;;;;;8.82;76.94;92519.69;5070103;28;20220;-69
2023/03/26 05:59:40;;;;;;;12.90;12.10;;;;;;;8.77;76.47;92510.09;5069267;28;20236;-69
2023/03/26 06:02:06;;;;;;;12.37;11.57;;;;;;;8.79;76.38;92504.63;5068948;28;20212;-70
2023/03/26 06:04:32;;;;;;;12.30;11.20;;;;;;;8.89;76.63;92499.31;5070041;28;20213;-69
2023/03/26 06:06:57;;;;;;;12.13;11.33;;;;;;;8.93;76.95;92492.56;5070503;28;20193;-69
2023/03/26 06:09:22;;;;;;;12.47;11.67;;;;;;;8.91;75.20;92489.44;5070327;28;20208;-69
2023/03/26 06:12:02;;;;;;;12.07;11.27;;;;;;;8.90;75.20;92493.84;5069560;28;20189;-69
2023/03/26 06:14:27;;;;;;;11.77;10.97;;;;;;;8.77;74.15;92489.28;5070141;28;20232;-69
2023/03/26 06:16:53;;;;;;;12.53;11.73;;;;;;;8.95;73.99;92493.06;5069828;28;20185;-69
2023/03/26 06:19:18;;;;;;;11.83;11.03;;;;;;;8.99;74.25;92494.84;5070174;28;20221;-69
2023/03/26 06:21:43;;;;;;;12.87;11.87;;;;;;;8.72;74.31;92439.84;5069985;28;20221;-69
2023/03/26 06:24:09;;;;;;;12.60;11.80;;;;;;;9.00;74.97;92487.81;5069810;28;20200;-69
2023/03/26 06:26:34;;;;;;;11.83;11.03;;;;;;;9.00;75.22;92480.00;5069838;28;20221;-69
2023/03/26 06:29:00;;;;;;;11.90;11.03;;;;;;;9.16;74.43;92494.47;5070584;28;20209;-70
2023/03/26 06:31:26;;;;;;;12.90;12.10;;;;;;;9.21;75.62;92503.00;5069009;28;20237;-69
2023/03/26 06:33:52;;;;;;;12.83;11.93;;;;;;;9.09;75.20;92481.75;5070270;28;20217;-68
2023/03/26 06:36:17;;;;;;;12.27;11.50;;;;;;;9.12;74.64;92472.63;5069367;28;20255;-69
2023/03/26 06:38:43;;;;;;;13.07;12.27;;;;;;;9.23;74.61;92489.75;5070165;28;20189;-69
2023/03/26 06:41:08;;;;;;;14.03;13.03;;;;;;;9.26;74.89;92486.59;5069410;28;20288;-69
2023/03/26 06:43:35;;;;;;;12.90;12.00;;;;;;;9.26;74.54;92483.97;5069845;28;20205;-68
2023/03/26 06:46:01;;;;;;;13.33;12.43;;;;;;;9.37;74.94;92472.44;5067606;28;20244;-70
2023/03/26 06:48:27;;;;;;;11.27;10.47;;;;;;;9.45;74.00;92485.63;5069989;28;20185;-69
2023/03/26 06:50:52;;;;;;;12.67;11.87;;;;;;;9.41;75.43;92481.25;5069697;28;20263;-69
2023/03/26 06:53:17;;;;;;;12.00;11.30;;;;;;;9.32;76.55;92493.31;5069955;28;20228;-69
2023/03/26 06:55:43;;;;;;;11.87;11.07;;;;;;;9.57;75.47;92500.91;5068251;28;20327;-69
2023/03/26 06:58:11;;;;;;;12.93;12.03;;;;;;;9.48;76.20;92510.34;5069759;28;20189;-70
2023/03/26 07:00:36;;;;;;;12.73;11.93;;;;;;;9.63;74.62;92511.00;5068885;28;20312;-69
2023/03/26 07:03:03;;;;;;;11.90;11.10;;;;;;;9.72;74.12;92519.78;5069692;28;20205;-69
2023/03/26 07:05:29;;;;;;;11.03;10.33;;;;;;;9.61;73.21;92510.50;5069343;28;20228;-69
2023/03/26 07:07:55;;;;;;;11.53;10.73;;;;;;;9.70;74.00;92531.53;5069853;28;20174;-69
2023/03/26 07:10:20;;;;;;;13.97;12.97;;;;;;;9.95;73.15;92533.91;5067309;28;20225;-70
2023/03/26 07:12:46;;;;;;;13.27;12.27;;;;;;;9.98;73.78;92538.56;5069564;28;20215;-69
2023/03/26 07:15:11;;;;;;;13.00;12.00;;;;;;;10.09;72.50;92534.03;5069006;28;20221;-70
2023/03/26 07:17:36;;;;;;;11.87;11.07;;;;;;;9.74;73.40;92527.34;5069644;28;20187;-69
2023/03/26 07:20:04;;;;;;;12.07;11.33;;;;;;;9.82;71.40;92535.31;5069091;28;20217;-70
2023/03/26 07:22:29;;;;;;;12.00;11.13;;;;;;;9.92;70.17;92529.25;5069073;28;20215;-69
2023/03/26 07:24:55;;;;;;;11.97;11.23;;;;;;;9.98;69.40;92533.34;5068538;28;20231;-69
2023/03/26 07:27:33;;;;;;;10.67;9.97;;;;;;;10.15;69.45;92533.72;5069450;28;20268;-69
2023/03/26 07:30:03;;;;;;;11.93;11.03;;;;;;;10.01;71.02;92524.97;5068657;28;20217;-70
2023/03/26 07:32:37;;;;;;;12.73;11.83;;;;;;;10.07;70.39;92525.72;5069022;28;20245;-70
2023/03/26 07:35:09;;;;;;;12.63;11.73;;;;;;;10.07;69.30;92515.28;5068504;28;20220;-70
2023/03/26 07:37:42;;;;;;;11.20;10.50;;;;;;;10.14;69.38;92506.09;5069329;28;20195;-69
2023/03/26 07:40:26;;;;;;;12.37;11.53;;;;;;;10.50;69.41;92511.66;5067408;28;20248;-69
2023/03/26 07:43:12;;;;;;;11.63;10.83;;;;;;;10.51;67.65;92513.22;5068446;28;20214;-69
2023/03/26 07:45:42;;;;;;;11.63;10.93;;;;;;;10.75;66.24;92508.75;5068080;28;20237;-69
2023/03/26 07:48:26;;;;;;;11.07;10.43;;;;;;;10.82;66.76;92515.16;5068919;28;20234;-68
2023/03/26 07:50:52;;;;;;;11.93;10.90;;;;;;;10.83;65.59;92508.13;5055218;28;20230;-69
2023/03/26 07:53:19;;;;;;;11.43;10.63;;;;;;;10.81;65.31;92510.22;5048893;28;20221;-68
2023/03/26 07:56:00;;;;;;;12.43;11.63;;;;;;;11.06;64.59;92517.72;5060382;28;20224;-69
2023/03/26 07:59:00;;;;;;;10.60;10.00;;;;;;;11.02;61.66;92517.50;5069435;28;20190;-69
2023/03/26 08:01:38;;;;;;;10.87;10.20;;;;;;;11.11;60.94;92510.56;5068698;28;20230;-69
2023/03/26 08:04:19;;;;;;;10.57;9.90;;;;;;;10.95;59.85;92517.09;5067756;28;20195;-69
2023/03/26 08:07:17;;;;;;;10.17;9.57;;;;;;;11.08;55.49;92511.13;5068514;28;20212;-70
2023/03/26 08:10:07;;;;;;;11.00;10.03;;;;;;;10.87;56.90;92496.81;5050887;28;20233;-69
2023/03/26 08:12:44;;;;;;;10.63;10.03;;;;;;;11.29;56.35;92504.56;5067899;28;20202;-69
2023/03/26 08:15:31;;;;;;;10.13;9.57;;;;;;;11.25;56.45;92506.16;5067555;28;20253;-69
2023/03/26 08:18:18;;;;;;;10.03;9.53;;;;;;;11.33;56.49;92515.97;5067669;28;20187;-70
2023/03/26 08:20:50;;;;;;;9.80;9.20;;;;;;;11.43;55.15;92517.66;5068695;28;20264;-69
2023/03/26 08:23:24;;;;;;;11.67;10.77;;;;;;;11.48;56.13;92508.97;5068451;28;20214;-69
2023/03/26 08:26:01;;;;;;;9.93;9.33;;;;;;;11.65;55.94;92520.50;5066706;28;20224;-70
2023/03/26 08:28:57;;;;;;;9.70;9.20;;;;;;;11.71;54.37;92524.56;5068661;28;20193;-69
2023/03/26 08:31:33;;;;;;;11.33;10.63;;;;;;;11.68;55.80;92525.13;5067868;28;20233;-69
2023/03/26 08:33:59;;;;;;;10.90;10.30;;;;;;;11.76;54.18;92521.09;5069242;28;20179;-69
2023/03/26 08:36:26;;;;;;;10.37;9.77;;;;;;;11.71;56.61;92526.41;5071791;28;20212;-70
2023/03/26 08:38:52;;;;;;;10.53;9.93;;;;;;;11.88;55.85;92524.78;5072453;28;20338;-69
2023/03/26 08:41:48;;;;;;;10.77;10.07;;;;;;;11.85;55.16;92524.59;5071540;28;20221;-68
2023/03/26 08:44:33;;;;;;;10.40;9.63;;;;;;;11.76;56.60;92521.88;5071496;28;20198;-70
2023/03/26 08:47:29;;;;;;;10.40;9.60;;;;;;;11.73;56.65;92526.91;5070027;28;20275;-69
2023/03/26 08:50:00;;;;;;;9.87;9.27;;;;;;;11.70;55.20;92525.63;5071336;28;20245;-69
2023/03/26 08:52:44;;;;;;;9.50;9.00;;;;;;;11.89;53.77;92533.44;5072288;28;20192;-69
2023/03/26 08:55:51;;;;;;;9.30;8.80;;;;;;;12.04;52.89;92528.72;5070715;28;20903;-69
2023/03/26 08:58:25;;;;;;;9.67;9.17;;;;;;;12.40;55.17;92526.22;5030064;28;20202;-69
2023/03/26 09:01:03;;;;;;;9.70;9.30;;;;;;;12.04;52.57;92522.69;5062862;28;20221;-69
2023/03/26 09:04:06;;;;;;;10.30;9.73;;;;;;;12.23;54.18;92521.53;5071208;28;20216;-70
2023/03/26 09:07:08;;;;;;;9.90;9.40;;;;;;;12.34;53.24;92527.38;5071519;28;20290;-69
2023/03/26 09:10:05;;;;;;;8.93;8.53;;;;;;;12.17;53.01;92521.94;5071558;28;20313;-69
2023/03/26 09:13:06;;;;;;;10.20;9.47;;;;;;;12.05;53.91;92521.63;5104451;28;20212;-69
2023/03/26 09:15:34;;;;;;;9.33;8.87;;;;;;;12.17;54.26;92521.94;5016973;28;20260;-69
2023/03/26 09:18:15;;;;;;;9.73;9.23;;;;;;;12.13;53.68;92520.94;5073755;28;20204;-69
2023/03/26 09:20:49;;;;;;;10.67;10.07;;;;;;;12.20;53.04;92523.97;5069023;28;20241;-70
2023/03/26 09:23:15;;;;;;;10.70;10.07;;;;;;;12.22;53.29;92519.22;5070743;28;20226;-69
2023/03/26 09:25:41;;;;;;;10.90;10.30;;;;;;;12.27;53.76;92509.44;5070594;28;20241;-70
2023/03/26 09:28:30;;;;;;;9.77;9.10;;;;;;;12.35;53.60;92513.22;5071324;28;20196;-69
2023/03/26 09:31:18;;;;;;;9.33;8.93;;;;;;;12.33;50.74;92510.09;5045207;28;20227;-70
2023/03/26 09:33:51;;;;;;;9.90;9.40;;;;;;;12.21;51.48;92512.44;5062574;28;20227;-68
2023/03/26 09:36:53;;;;;;;9.23;8.77;;;;;;;12.50;51.24;92500.59;5070735;28;20216;-69
2023/03/26 09:39:40;;;;;;;8.87;8.47;;;;;;;12.68;49.40;92519.91;5070433;28;20203;-69
2023/03/26 09:42:16;;;;;;;9.40;8.90;;;;;;;12.39;48.81;92508.97;5071450;28;20221;-69
2023/03/26 09:45:00;;;;;;;9.13;8.63;;;;;;;12.28;50.34;92521.44;5069570;28;20251;-69
2023/03/26 09:47:38;;;;;;;7.77;7.47;;;;;;;12.43;47.98;92515.16;5071092;28;20229;-70
2023/03/26 09:50:28;;;;;;;8.40;8.00;;;;;;;12.51;48.73;92496.16;5070124;28;20243;-69
2023/03/26 09:53:02;;;;;;;8.30;7.90;;;;;;;12.53;48.41;92515.72;5102426;28;20185;-70
2023/03/26 09:55:55;;;;;;;8.67;8.30;;;;;;;12.25;46.63;92508.19;5070517;28;20238;-69
2023/03/26 09:58:45;;;;;;;7.53;7.23;;;;;;;12.23;47.17;92502.47;5070901;28;20219;-69
2023/03/26 10:01:24;;;;;;;8.27;7.87;;;;;;;12.41;46.16;92497.13;5070476;28;20226;-70
2023/03/26 10:03:57;;;;;;;7.40;7.10;;;;;;;12.65;45.76;92492.44;5085764;28;20198;-69
2023/03/26 10:06:44;;;;;;;9.60;9.13;;;;;;;12.76;47.28;92482.53;5069060;28;20225;-69
2023/03/26 10:09:29;;;;;;;8.23;7.83;;;;;;;12.75;43.81;92478.34;5070728;28;20212;-68
2023/03/26 10:12:10;;;;;;;8.97;8.57;;;;;;;12.93;44.76;92472.97;5069360;28;20225;-68
2023/03/26 10:14:47;;;;;;;7.77;7.47;;;;;;;12.85;43.72;92471.06;5069601;28;20225;-69
2023/03/26 10:17:37;;;;;;;7.83;7.53;;;;;;;12.71;43.95;92465.09;5070577;28;20208;-69
2023/03/26 10:20:27;;;;;;;9.87;9.10;;;;;;;12.81;45.01;92464.06;5068082;28;20240;-68
2023/03/26 10:22:59;;;;;;;8.07;7.63;;;;;;;12.68;42.78;92465.66;5069937;28;20224;-69
2023/03/26 10:25:32;;;;;;;9.30;8.80;;;;;;;12.60;41.79;92461.13;5067968;28;20300;-68
2023/03/26 10:28:16;;;;;;;8.60;8.20;;;;;;;12.85;42.37;92451.94;5069322;28;20193;-69
2023/03/26 10:31:06;;;;;;;7.87;7.47;;;;;;;12.97;41.06;92441.72;5070120;28;20998;-69
2023/03/26 10:33:37;;;;;;;7.63;7.23;;;;;;;12.91;40.34;92442.91;5069953;28;20228;-69
2023/03/26 10:36:58;;;;;;;6.73;6.53;;;;;;;13.10;38.61;92446.19;5069131;28;20255;-69
2023/03/26 10:40:05;;;;;;;7.57;7.27;;;;;;;12.96;37.92;92433.06;5035851;28;20221;-70
2023/03/26 10:42:45;;;;;;;7.70;7.40;;;;;;;13.12;37.22;92438.78;5061596;28;20232;-69
2023/03/26 10:45:34;;;;;;;8.10;7.80;;;;;;;13.16;36.50;92434.50;5070093;28;20304;-68
2023/03/26 10:48:18;;;;;;;7.90;7.60;;;;;;;12.79;37.43;92406.75;5068766;28;20350;-70
2023/03/26 10:50:56;;;;;;;7.20;6.80;;;;;;;13.04;36.68;92418.53;5068731;28;20241;-69
2023/03/26 10:53:32;;;;;;;8.40;7.90;;;;;;;13.01;35.17;92416.50;5069639;28;20194;-69
2023/03/26 10:56:20;;;;;;;8.57;8.00;;;;;;;13.24;35.35;92423.31;5067630;28;20216;-69
2023/03/26 10:58:46;;;;;;;7.47;7.17;;;;;;;13.02;35.92;92412.03;5069483;28;20201;-68
2023/03/26 11:01:38;;;;;;;7.07;6.87;;;;;;;13.20;33.62;92413.72;5069224;28;20233;-68
2023/03/26 11:04:28;;;;;;;7.70;7.40;;;;;;;13.39;32.79;92407.19;5094284;28;20193;-68
2023/03/26 11:07:29;;;;;;;7.73;7.47;;;;;;;13.49;35.39;92411.41;5069025;28;20896;-69
2023/03/26 11:10:10;;;;;;;7.50;7.30;;;;;;;13.35;35.41;92411.50;5078210;28;20225;-69
2023/03/26 11:12:38;;;;;;;8.57;8.17;;;;;;;13.18;34.31;92411.38;5069835;28;20246;-69
2023/03/26 11:15:29;;;;;;;7.77;7.47;;;;;;;13.29;32.69;92407.44;5068957;28;20245;-69
2023/03/26 11:18:04;;;;;;;8.50;8.13;;;;;;;13.37;32.16;92406.72;5068651;28;20197;-69
2023/03/26 11:20:38;;;;;;;8.90;8.30;;;;;;;13.46;31.86;92407.56;5068628;28;20251;-69
2023/03/26 11:23:22;;;;;;;7.57;7.37;;;;;;;13.49;32.52;92406.94;5068409;28;20247;-69
2023/03/26 11:25:50;;;;;;;7.63;7.43;;;;;;;13.37;34.09;92393.59;5068934;28;20255;-68
2023/03/26 11:28:50;;;;;;;8.10;7.80;;;;;;;13.44;33.46;92388.72;5101495;28;20217;-69
2023/03/26 11:31:24;;;;;;;8.07;7.77;;;;;;;13.45;34.50;92385.00;5068116;28;20240;-69
2023/03/26 11:33:54;;;;;;;7.83;7.60;;;;;;;13.42;35.65;92377.75;5068529;28;20189;-69
2023/03/26 11:36:25;;;;;;;7.83;7.53;;;;;;;13.53;35.13;92376.41;5068176;28;20221;-68
2023/03/26 11:38:56;;;;;;;8.70;8.30;;;;;;;13.66;34.37;92391.31;5068710;28;20205;-69
2023/03/26 11:41:24;;;;;;;7.83;7.43;;;;;;;13.50;34.37;92378.84;5068292;28;20239;-68
2023/03/26 11:44:22;;;;;;;8.70;8.33;;;;;;;13.74;35.33;92371.41;5068518;28;20182;-69
2023/03/26 11:46:51;;;;;;;7.73;7.43;;;;;;;13.87;34.46;92373.16;5067276;28;20233;-68
2023/03/26 11:49:19;;;;;;;8.07;7.77;;;;;;;13.87;35.13;92355.56;5067661;28;20205;-68
2023/03/26 11:51:47;;;;;;;7.60;7.30;;;;;;;13.95;33.24;92357.44;5068993;28;20197;-68
2023/03/26 11:54:14;;;;;;;7.73;7.43;;;;;;;13.76;34.24;92343.78;5067349;28;20193;-70
2023/03/26 11:56:48;;;;;;;7.87;7.57;;;;;;;13.81;33.69;92338.41;5068939;28;20272;-68